sensor_id;sensor_type;location;lat;lon;timestamp;P1;durP1;ratioP1;P2;durP2;ratioP2
29362;SDS011;16349;53.672;10.014;2023-03-23T00:01:38;7.60;;;5.17;;
29362;SDS011;16349;53.672;10.014;2023-03-23T00:04:06;10.90;;;6.10;;
29362;SDS011;16349;53.672;10.014;2023-03-23T00:06:33;5.70;;;5.23;;
29362;SDS011;16349;53.672;10.014;2023-03-23T00:09:01;13.83;;;5.93;;
29362;SDS011;16349;53.672;10.014;2023-03-23T00:11:31;6.80;;;5.93;;
29362;SDS011;16349;53.672;10.014;2023-03-23T00:13:59;9.10;;;6.40;;
29362;SDS011;16349;53.672;10.014;2023-03-23T00:16:28;10.37;;;6.10;;
29362;SDS011;16349;53.672;10.014;2023-03-23T00:18:58;9.33;;;7.77;;
29362;SDS011;16349;53.672;10.014;2023-03-23T00:21:28;10.13;;;6.40;;
29362;SDS011;16349;53.672;10.014;2023-03-23T00:24:00;7.70;;;6.47;;
29362;SDS011;16349;53.672;10.014;2023-03-23T00:26:29;10.83;;;6.77;;
29362;SDS011;16349;53.672;10.014;2023-03-23T00:28:59;10.73;;;7.00;;
29362;SDS011;16349;53.672;10.014;2023-03-23T00:31:27;10.30;;;7.53;;
29362;SDS011;16349;53.672;10.014;2023-03-23T00:33:56;9.33;;;7.97;;
29362;SDS011;16349;53.672;10.014;2023-03-23T00:36:27;14.57;;;8.40;;
29362;SDS011;16349;53.672;10.014;2023-03-23T00:38:54;11.77;;;8.63;;
29362;SDS011;16349;53.672;10.014;2023-03-23T00:41:23;11.43;;;8.37;;
29362;SDS011;16349;53.672;10.014;2023-03-23T00:43:52;10.30;;;8.43;;
29362;SDS011;16349;53.672;10.014;2023-03-23T00:46:19;9.67;;;8.10;;
29362;SDS011;16349;53.672;10.014;2023-03-23T00:48:46;10.83;;;9.00;;
29362;SDS011;16349;53.672;10.014;2023-03-23T00:51:13;10.13;;;9.03;;
29362;SDS011;16349;53.672;10.014;2023-03-23T00:53:42;10.13;;;9.00;;
29362;SDS011;16349;53.672;10.014;2023-03-23T00:56:08;12.70;;;9.60;;
29362;SDS011;16349;53.672;10.014;2023-03-23T00:58:35;12.17;;;9.57;;
29362;SDS011;16349;53.672;10.014;2023-03-23T01:01:02;13.00;;;9.77;;
29362;SDS011;16349;53.672;10.014;2023-03-23T01:03:30;12.80;;;9.87;;
29362;SDS011;16349;53.672;10.014;2023-03-23T01:05:58;11.40;;;9.60;;
29362;SDS011;16349;53.672;10.014;2023-03-23T01:08:33;11.63;;;9.70;;
29362;SDS011;16349;53.672;10.014;2023-03-23T01:11:04;10.50;;;9.40;;
29362;SDS011;16349;53.672;10.014;2023-03-23T01:13:32;11.00;;;9.87;;
29362;SDS011;16349;53.672;10.014;2023-03-23T01:15:59;11.57;;;9.67;;
29362;SDS011;16349;53.672;10.014;2023-03-23T01:18:27;11.30;;;10.10;;
29362;SDS011;16349;53.672;10.014;2023-03-23T01:20:53;14.23;;;10.07;;
29362;SDS011;16349;53.672;10.014;2023-03-23T01:23:20;12.47;;;9.87;;
29362;SDS011;16349;53.672;10.014;2023-03-23T01:25:47;10.10;;;8.90;;
29362;SDS011;16349;53.672;10.014;2023-03-23T01:28:16;10.13;;;9.13;;
29362;SDS011;16349;53.672;10.014;2023-03-23T01:30:43;12.30;;;9.03;;
29362;SDS011;16349;53.672;10.014;2023-03-23T01:33:09;11.43;;;9.00;;
29362;SDS011;16349;53.672;10.014;2023-03-23T01:35:37;10.90;;;9.80;;
29362;SDS011;16349;53.672;10.014;2023-03-23T01:38:04;10.30;;;9.27;;
29362;SDS011;16349;53.672;10.014;2023-03-23T01:40:31;11.70;;;9.80;;
29362;SDS011;16349;53.672;10.014;2023-03-23T01:42:58;11.93;;;10.27;;
29362;SDS011;16349;53.672;10.014;2023-03-23T01:45:30;11.73;;;9.87;;
29362;SDS011;16349;53.672;10.014;2023-03-23T01:48:11;11.53;;;10.43;;
29362;SDS011;16349;53.672;10.014;2023-03-23T01:50:44;10.33;;;9.10;;
29362;SDS011;16349;53.672;10.014;2023-03-23T01:53:18;11.13;;;9.80;;
29362;SDS011;16349;53.672;10.014;2023-03-23T01:55:46;12.83;;;10.17;;
29362;SDS011;16349;53.672;10.014;2023-03-23T01:58:19;12.57;;;9.50;;
29362;SDS011;16349;53.672;10.014;2023-03-23T02:00:55;13.33;;;10.43;;
29362;SDS011;16349;53.672;10.014;2023-03-23T02:03:27;12.87;;;10.50;;
29362;SDS011;16349;53.672;10.014;2023-03-23T02:05:57;12.10;;;10.67;;
29362;SDS011;16349;53.672;10.014;2023-03-23T02:08:34;14.70;;;11.47;;
29362;SDS011;16349;53.672;10.014;2023-03-23T02:11:08;14.93;;;10.93;;
29362;SDS011;16349;53.672;10.014;2023-03-23T02:13:38;12.97;;;10.67;;
29362;SDS011;16349;53.672;10.014;2023-03-23T02:16:07;12.70;;;11.40;;
29362;SDS011;16349;53.672;10.014;2023-03-23T02:18:42;14.87;;;11.13;;
29362;SDS011;16349;53.672;10.014;2023-03-23T02:21:24;12.67;;;11.37;;
29362;SDS011;16349;53.672;10.014;2023-03-23T02:24:21;13.20;;;9.43;;
29362;SDS011;16349;53.672;10.014;2023-03-23T02:27:01;11.30;;;10.10;;
29362;SDS011;16349;53.672;10.014;2023-03-23T02:29:46;16.43;;;11.90;;
29362;SDS011;16349;53.672;10.014;2023-03-23T02:32:30;12.57;;;10.53;;
29362;SDS011;16349;53.672;10.014;2023-03-23T02:35:22;12.33;;;10.17;;
29362;SDS011;16349;53.672;10.014;2023-03-23T02:37:55;11.03;;;9.67;;
29362;SDS011;16349;53.672;10.014;2023-03-23T02:40:27;11.70;;;10.47;;
29362;SDS011;16349;53.672;10.014;2023-03-23T02:42:58;14.37;;;10.10;;
29362;SDS011;16349;53.672;10.014;2023-03-23T02:45:28;11.50;;;9.33;;
29362;SDS011;16349;53.672;10.014;2023-03-23T02:47:57;10.67;;;9.50;;
29362;SDS011;16349;53.672;10.014;2023-03-23T02:50:29;11.67;;;9.77;;
29362;SDS011;16349;53.672;10.014;2023-03-23T02:53:02;11.93;;;9.80;;
29362;SDS011;16349;53.672;10.014;2023-03-23T02:55:34;11.03;;;9.90;;
29362;SDS011;16349;53.672;10.014;2023-03-23T02:58:08;13.43;;;9.93;;
29362;SDS011;16349;53.672;10.014;2023-03-23T03:00:35;11.30;;;9.90;;
29362;SDS011;16349;53.672;10.014;2023-03-23T03:03:03;11.20;;;9.73;;
29362;SDS011;16349;53.672;10.014;2023-03-23T03:05:35;10.90;;;9.80;;
29362;SDS011;16349;53.672;10.014;2023-03-23T03:08:08;10.73;;;9.03;;
29362;SDS011;16349;53.672;10.014;2023-03-23T03:10:44;10.17;;;9.17;;
29362;SDS011;16349;53.672;10.014;2023-03-23T03:13:20;10.27;;;9.20;;
29362;SDS011;16349;53.672;10.014;2023-03-23T03:15:54;11.13;;;9.67;;
29362;SDS011;16349;53.672;10.014;2023-03-23T03:18:27;12.50;;;9.83;;
29362;SDS011;16349;53.672;10.014;2023-03-23T03:21:02;10.53;;;9.50;;
29362;SDS011;16349;53.672;10.014;2023-03-23T03:23:34;11.30;;;10.03;;
29362;SDS011;16349;53.672;10.014;2023-03-23T03:26:03;11.03;;;9.33;;
29362;SDS011;16349;53.672;10.014;2023-03-23T03:28:47;10.93;;;9.70;;
29362;SDS011;16349;53.672;10.014;2023-03-23T03:31:17;12.27;;;10.10;;
29362;SDS011;16349;53.672;10.014;2023-03-23T03:33:48;11.53;;;9.80;;
29362;SDS011;16349;53.672;10.014;2023-03-23T03:36:18;10.47;;;9.37;;
29362;SDS011;16349;53.672;10.014;2023-03-23T03:38:47;11.80;;;8.77;;
29362;SDS011;16349;53.672;10.014;2023-03-23T03:41:17;11.27;;;10.10;;
29362;SDS011;16349;53.672;10.014;2023-03-23T03:43:45;11.60;;;10.50;;
29362;SDS011;16349;53.672;10.014;2023-03-23T03:46:12;10.83;;;9.60;;
29362;SDS011;16349;53.672;10.014;2023-03-23T03:48:39;10.23;;;9.20;;
29362;SDS011;16349;53.672;10.014;2023-03-23T03:51:06;12.97;;;9.73;;
29362;SDS011;16349;53.672;10.014;2023-03-23T03:53:38;10.77;;;9.80;;
29362;SDS011;16349;53.672;10.014;2023-03-23T03:56:06;11.00;;;9.90;;
29362;SDS011;16349;53.672;10.014;2023-03-23T03:58:41;11.50;;;10.17;;
29362;SDS011;16349;53.672;10.014;2023-03-23T04:01:22;11.20;;;10.13;;
29362;SDS011;16349;53.672;10.014;2023-03-23T04:03:49;13.53;;;10.87;;
29362;SDS011;16349;53.672;10.014;2023-03-23T04:06:26;13.80;;;11.23;;
29362;SDS011;16349;53.672;10.014;2023-03-23T04:08:56;12.20;;;11.00;;
29362;SDS011;16349;53.672;10.014;2023-03-23T04:11:25;13.60;;;11.20;;
29362;SDS011;16349;53.672;10.014;2023-03-23T04:13:57;11.23;;;10.03;;
29362;SDS011;16349;53.672;10.014;2023-03-23T04:16:30;11.60;;;9.40;;
29362;SDS011;16349;53.672;10.014;2023-03-23T04:18:59;11.53;;;10.33;;
29362;SDS011;16349;53.672;10.014;2023-03-23T04:21:26;10.60;;;9.50;;
29362;SDS011;16349;53.672;10.014;2023-03-23T04:23:56;10.63;;;9.63;;
29362;SDS011;16349;53.672;10.014;2023-03-23T04:26:25;10.87;;;9.90;;
29362;SDS011;16349;53.672;10.014;2023-03-23T04:28:54;11.97;;;9.33;;
29362;SDS011;16349;53.672;10.014;2023-03-23T04:31:48;11.13;;;9.93;;
29362;SDS011;16349;53.672;10.014;2023-03-23T04:34:38;13.13;;;10.47;;
29362;SDS011;16349;53.672;10.014;2023-03-23T04:37:06;15.17;;;11.20;;
29362;SDS011;16349;53.672;10.014;2023-03-23T04:39:35;13.40;;;10.60;;
29362;SDS011;16349;53.672;10.014;2023-03-23T04:42:05;17.20;;;12.37;;
29362;SDS011;16349;53.672;10.014;2023-03-23T04:44:51;11.47;;;10.27;;
29362;SDS011;16349;53.672;10.014;2023-03-23T04:47:26;12.37;;;9.73;;
29362;SDS011;16349;53.672;10.014;2023-03-23T04:49:57;11.33;;;10.13;;
29362;SDS011;16349;53.672;10.014;2023-03-23T04:52:33;12.97;;;11.50;;
29362;SDS011;16349;53.672;10.014;2023-03-23T04:55:06;12.83;;;10.63;;
29362;SDS011;16349;53.672;10.014;2023-03-23T04:57:34;14.27;;;10.47;;
29362;SDS011;16349;53.672;10.014;2023-03-23T05:00:20;13.57;;;11.07;;
29362;SDS011;16349;53.672;10.014;2023-03-23T05:02:51;11.63;;;9.73;;
29362;SDS011;16349;53.672;10.014;2023-03-23T05:05:24;10.83;;;9.77;;
29362;SDS011;16349;53.672;10.014;2023-03-23T05:07:53;11.17;;;10.07;;
29362;SDS011;16349;53.672;10.014;2023-03-23T05:10:24;11.87;;;10.27;;
29362;SDS011;16349;53.672;10.014;2023-03-23T05:12:53;14.23;;;10.83;;
29362;SDS011;16349;53.672;10.014;2023-03-23T05:15:20;14.17;;;11.13;;
29362;SDS011;16349;53.672;10.014;2023-03-23T05:17:50;13.10;;;10.80;;
29362;SDS011;16349;53.672;10.014;2023-03-23T05:20:19;14.47;;;10.77;;
29362;SDS011;16349;53.672;10.014;2023-03-23T05:22:49;13.80;;;11.40;;
29362;SDS011;16349;53.672;10.014;2023-03-23T05:25:22;11.87;;;10.47;;
29362;SDS011;16349;53.672;10.014;2023-03-23T05:27:58;12.80;;;10.53;;
29362;SDS011;16349;53.672;10.014;2023-03-23T05:30:39;10.87;;;9.87;;
29362;SDS011;16349;53.672;10.014;2023-03-23T05:33:11;12.93;;;10.83;;
29362;SDS011;16349;53.672;10.014;2023-03-23T05:35:45;14.60;;;11.17;;
29362;SDS011;16349;53.672;10.014;2023-03-23T05:38:14;12.73;;;10.87;;
29362;SDS011;16349;53.672;10.014;2023-03-23T05:40:42;12.63;;;11.40;;
29362;SDS011;16349;53.672;10.014;2023-03-23T05:43:26;11.40;;;10.23;;
29362;SDS011;16349;53.672;10.014;2023-03-23T05:46:06;11.90;;;10.80;;
29362;SDS011;16349;53.672;10.014;2023-03-23T05:48:35;13.53;;;11.77;;
29362;SDS011;16349;53.672;10.014;2023-03-23T05:51:04;15.90;;;10.70;;
29362;SDS011;16349;53.672;10.014;2023-03-23T05:53:34;20.57;;;11.87;;
29362;SDS011;16349;53.672;10.014;2023-03-23T05:56:01;14.80;;;10.00;;
29362;SDS011;16349;53.672;10.014;2023-03-23T05:58:49;13.17;;;10.30;;
29362;SDS011;16349;53.672;10.014;2023-03-23T06:01:15;16.23;;;11.17;;
29362;SDS011;16349;53.672;10.014;2023-03-23T06:03:42;12.27;;;9.27;;
29362;SDS011;16349;53.672;10.014;2023-03-23T06:06:18;14.97;;;9.33;;
29362;SDS011;16349;53.672;10.014;2023-03-23T06:08:50;11.53;;;8.90;;
29362;SDS011;16349;53.672;10.014;2023-03-23T06:11:23;11.33;;;9.07;;
29362;SDS011;16349;53.672;10.014;2023-03-23T06:14:08;9.93;;;9.00;;
29362;SDS011;16349;53.672;10.014;2023-03-23T06:16:35;9.23;;;8.30;;
29362;SDS011;16349;53.672;10.014;2023-03-23T06:19:07;11.17;;;8.60;;
29362;SDS011;16349;53.672;10.014;2023-03-23T06:21:39;9.53;;;8.17;;
29362;SDS011;16349;53.672;10.014;2023-03-23T06:24:20;11.37;;;8.77;;
29362;SDS011;16349;53.672;10.014;2023-03-23T06:26:47;11.57;;;8.07;;
29362;SDS011;16349;53.672;10.014;2023-03-23T06:29:19;9.77;;;7.87;;
29362;SDS011;16349;53.672;10.014;2023-03-23T06:31:52;11.37;;;8.17;;
29362;SDS011;16349;53.672;10.014;2023-03-23T06:34:22;6.80;;;6.13;;
29362;SDS011;16349;53.672;10.014;2023-03-23T06:37:24;9.30;;;7.17;;
29362;SDS011;16349;53.672;10.014;2023-03-23T06:40:01;10.57;;;8.20;;
29362;SDS011;16349;53.672;10.014;2023-03-23T06:42:35;9.30;;;6.77;;
29362;SDS011;16349;53.672;10.014;2023-03-23T06:45:27;8.47;;;6.87;;
29362;SDS011;16349;53.672;10.014;2023-03-23T06:48:17;10.77;;;6.47;;
29362;SDS011;16349;53.672;10.014;2023-03-23T06:50:45;9.67;;;6.80;;
29362;SDS011;16349;53.672;10.014;2023-03-23T06:53:15;8.63;;;6.40;;
29362;SDS011;16349;53.672;10.014;2023-03-23T06:55:43;6.03;;;5.40;;
29362;SDS011;16349;53.672;10.014;2023-03-23T06:58:11;8.30;;;6.47;;
29362;SDS011;16349;53.672;10.014;2023-03-23T07:00:39;13.77;;;6.93;;
29362;SDS011;16349;53.672;10.014;2023-03-23T07:03:08;6.73;;;5.23;;
29362;SDS011;16349;53.672;10.014;2023-03-23T07:05:37;9.50;;;5.20;;
29362;SDS011;16349;53.672;10.014;2023-03-23T07:08:05;5.30;;;4.90;;
29362;SDS011;16349;53.672;10.014;2023-03-23T07:10:35;5.67;;;5.13;;
29362;SDS011;16349;53.672;10.014;2023-03-23T07:13:04;5.37;;;4.87;;
29362;SDS011;16349;53.672;10.014;2023-03-23T07:15:42;6.13;;;4.60;;
29362;SDS011;16349;53.672;10.014;2023-03-23T07:18:09;7.23;;;5.20;;
29362;SDS011;16349;53.672;10.014;2023-03-23T07:20:41;7.47;;;4.30;;
29362;SDS011;16349;53.672;10.014;2023-03-23T07:23:09;5.37;;;4.47;;
29362;SDS011;16349;53.672;10.014;2023-03-23T07:25:59;7.20;;;4.30;;
29362;SDS011;16349;53.672;10.014;2023-03-23T07:28:32;5.33;;;4.83;;
29362;SDS011;16349;53.672;10.014;2023-03-23T07:31:07;6.17;;;5.00;;
29362;SDS011;16349;53.672;10.014;2023-03-23T07:33:35;7.30;;;5.43;;
29362;SDS011;16349;53.672;10.014;2023-03-23T07:36:03;5.83;;;4.97;;
29362;SDS011;16349;53.672;10.014;2023-03-23T07:38:32;4.73;;;4.17;;
29362;SDS011;16349;53.672;10.014;2023-03-23T07:40:59;4.93;;;4.47;;
29362;SDS011;16349;53.672;10.014;2023-03-23T07:43:26;9.53;;;4.47;;
29362;SDS011;16349;53.672;10.014;2023-03-23T07:46:17;11.73;;;4.97;;
29362;SDS011;16349;53.672;10.014;2023-03-23T07:49:16;4.50;;;4.10;;
29362;SDS011;16349;53.672;10.014;2023-03-23T07:51:51;8.73;;;4.73;;
29362;SDS011;16349;53.672;10.014;2023-03-23T07:54:18;6.87;;;4.33;;
29362;SDS011;16349;53.672;10.014;2023-03-23T07:56:53;4.57;;;4.20;;
29362;SDS011;16349;53.672;10.014;2023-03-23T07:59:24;8.17;;;5.00;;
29362;SDS011;16349;53.672;10.014;2023-03-23T08:01:53;5.43;;;4.87;;
29362;SDS011;16349;53.672;10.014;2023-03-23T08:04:30;7.47;;;4.00;;
29362;SDS011;16349;53.672;10.014;2023-03-23T08:07:20;5.37;;;3.53;;
29362;SDS011;16349;53.672;10.014;2023-03-23T08:09:58;4.93;;;1.93;;
29362;SDS011;16349;53.672;10.014;2023-03-23T08:12:53;2.70;;;1.50;;
29362;SDS011;16349;53.672;10.014;2023-03-23T08:15:44;1.83;;;0.83;;
29362;SDS011;16349;53.672;10.014;2023-03-23T08:18:36;0.60;;;0.60;;
29362;SDS011;16349;53.672;10.014;2023-03-23T08:21:16;2.70;;;0.50;;
29362;SDS011;16349;53.672;10.014;2023-03-23T08:23:57;1.33;;;0.67;;
29362;SDS011;16349;53.672;10.014;2023-03-23T08:26:50;1.47;;;0.67;;
29362;SDS011;16349;53.672;10.014;2023-03-23T08:29:35;2.30;;;0.80;;
29362;SDS011;16349;53.672;10.014;2023-03-23T08:32:25;1.17;;;0.70;;
29362;SDS011;16349;53.672;10.014;2023-03-23T08:35:07;1.97;;;0.73;;
29362;SDS011;16349;53.672;10.014;2023-03-23T08:37:56;2.03;;;0.60;;
29362;SDS011;16349;53.672;10.014;2023-03-23T08:40:43;5.07;;;1.60;;
29362;SDS011;16349;53.672;10.014;2023-03-23T08:43:29;4.97;;;1.20;;
29362;SDS011;16349;53.672;10.014;2023-03-23T08:46:20;3.53;;;1.10;;
29362;SDS011;16349;53.672;10.014;2023-03-23T08:49:04;2.57;;;1.23;;
29362;SDS011;16349;53.672;10.014;2023-03-23T08:52:03;4.13;;;1.13;;
29362;SDS011;16349;53.672;10.014;2023-03-23T08:54:54;3.27;;;1.43;;
29362;SDS011;16349;53.672;10.014;2023-03-23T08:57:45;2.60;;;1.47;;
29362;SDS011;16349;53.672;10.014;2023-03-23T09:00:25;1.40;;;1.30;;
29362;SDS011;16349;53.672;10.014;2023-03-23T09:03:12;8.67;;;2.13;;
29362;SDS011;16349;53.672;10.014;2023-03-23T09:05:58;3.27;;;1.60;;
29362;SDS011;16349;53.672;10.014;2023-03-23T09:08:36;3.30;;;1.33;;
29362;SDS011;16349;53.672;10.014;2023-03-23T09:11:04;7.30;;;2.10;;
29362;SDS011;16349;53.672;10.014;2023-03-23T09:13:33;4.67;;;2.23;;
29362;SDS011;16349;53.672;10.014;2023-03-23T09:16:00;1.83;;;1.30;;
29362;SDS011;16349;53.672;10.014;2023-03-23T09:18:28;4.30;;;2.17;;
29362;SDS011;16349;53.672;10.014;2023-03-23T09:20:56;3.00;;;1.47;;
29362;SDS011;16349;53.672;10.014;2023-03-23T09:23:23;5.53;;;2.50;;
29362;SDS011;16349;53.672;10.014;2023-03-23T09:25:52;3.70;;;2.10;;
29362;SDS011;16349;53.672;10.014;2023-03-23T09:28:19;6.50;;;2.67;;
29362;SDS011;16349;53.672;10.014;2023-03-23T09:30:47;7.63;;;3.93;;
29362;SDS011;16349;53.672;10.014;2023-03-23T09:33:15;8.37;;;3.23;;
29362;SDS011;16349;53.672;10.014;2023-03-23T09:35:42;8.57;;;3.20;;
29362;SDS011;16349;53.672;10.014;2023-03-23T09:38:09;5.87;;;2.03;;
29362;SDS011;16349;53.672;10.014;2023-03-23T09:40:40;6.07;;;2.17;;
29362;SDS011;16349;53.672;10.014;2023-03-23T09:43:24;6.23;;;2.63;;
29362;SDS011;16349;53.672;10.014;2023-03-23T09:46:05;8.43;;;2.30;;
29362;SDS011;16349;53.672;10.014;2023-03-23T09:48:46;4.53;;;1.77;;
29362;SDS011;16349;53.672;10.014;2023-03-23T09:51:23;4.53;;;2.00;;
29362;SDS011;16349;53.672;10.014;2023-03-23T09:53:59;6.73;;;1.90;;
29362;SDS011;16349;53.672;10.014;2023-03-23T09:56:30;7.07;;;2.00;;
29362;SDS011;16349;53.672;10.014;2023-03-23T09:59:00;9.33;;;2.77;;
29362;SDS011;16349;53.672;10.014;2023-03-23T10:01:32;5.43;;;1.80;;
29362;SDS011;16349;53.672;10.014;2023-03-23T10:04:03;6.63;;;1.70;;
29362;SDS011;16349;53.672;10.014;2023-03-23T10:06:35;7.53;;;2.20;;
29362;SDS011;16349;53.672;10.014;2023-03-23T10:09:03;6.17;;;1.73;;
29362;SDS011;16349;53.672;10.014;2023-03-23T10:11:33;6.50;;;1.97;;
29362;SDS011;16349;53.672;10.014;2023-03-23T10:14:24;6.97;;;2.60;;
29362;SDS011;16349;53.672;10.014;2023-03-23T10:17:00;4.37;;;1.97;;
29362;SDS011;16349;53.672;10.014;2023-03-23T10:19:37;4.33;;;1.93;;
29362;SDS011;16349;53.672;10.014;2023-03-23T10:22:10;6.40;;;2.27;;
29362;SDS011;16349;53.672;10.014;2023-03-23T10:24:40;8.23;;;2.13;;
29362;SDS011;16349;53.672;10.014;2023-03-23T10:27:13;6.30;;;1.80;;
29362;SDS011;16349;53.672;10.014;2023-03-23T10:29:52;6.13;;;2.47;;
29362;SDS011;16349;53.672;10.014;2023-03-23T10:32:34;3.23;;;1.47;;
29362;SDS011;16349;53.672;10.014;2023-03-23T10:35:07;9.00;;;2.40;;
29362;SDS011;16349;53.672;10.014;2023-03-23T10:37:40;5.77;;;2.57;;
29362;SDS011;16349;53.672;10.014;2023-03-23T10:42:41;3.50;;;1.80;;
29362;SDS011;16349;53.672;10.014;2023-03-23T10:45:12;6.93;;;1.33;;
29362;SDS011;16349;53.672;10.014;2023-03-23T10:47:45;5.10;;;2.10;;
29362;SDS011;16349;53.672;10.014;2023-03-23T10:50:17;5.07;;;1.97;;
29362;SDS011;16349;53.672;10.014;2023-03-23T10:52:49;5.80;;;1.77;;
29362;SDS011;16349;53.672;10.014;2023-03-23T10:55:40;9.27;;;2.13;;
29362;SDS011;16349;53.672;10.014;2023-03-23T10:58:09;4.20;;;1.67;;
29362;SDS011;16349;53.672;10.014;2023-03-23T11:00:41;8.53;;;2.53;;
29362;SDS011;16349;53.672;10.014;2023-03-23T11:03:23;10.53;;;2.40;;
29362;SDS011;16349;53.672;10.014;2023-03-23T11:05:56;7.50;;;2.03;;
29362;SDS011;16349;53.672;10.014;2023-03-23T11:08:25;5.23;;;2.13;;
29362;SDS011;16349;53.672;10.014;2023-03-23T11:10:55;8.67;;;2.20;;
29362;SDS011;16349;53.672;10.014;2023-03-23T11:13:27;7.00;;;2.23;;
29362;SDS011;16349;53.672;10.014;2023-03-23T11:15:58;7.13;;;2.30;;
29362;SDS011;16349;53.672;10.014;2023-03-23T11:18:26;7.10;;;2.00;;
29362;SDS011;16349;53.672;10.014;2023-03-23T11:21:02;9.60;;;3.10;;
29362;SDS011;16349;53.672;10.014;2023-03-23T11:23:32;7.50;;;1.90;;
29362;SDS011;16349;53.672;10.014;2023-03-23T11:26:01;7.80;;;2.43;;
29362;SDS011;16349;53.672;10.014;2023-03-23T11:28:42;8.50;;;2.50;;
29362;SDS011;16349;53.672;10.014;2023-03-23T11:31:13;6.60;;;2.07;;
29362;SDS011;16349;53.672;10.014;2023-03-23T11:33:45;9.07;;;2.47;;
29362;SDS011;16349;53.672;10.014;2023-03-23T11:36:15;10.77;;;2.00;;
29362;SDS011;16349;53.672;10.014;2023-03-23T11:38:42;5.90;;;1.87;;
29362;SDS011;16349;53.672;10.014;2023-03-23T11:41:10;19.63;;;2.67;;
29362;SDS011;16349;53.672;10.014;2023-03-23T11:43:39;8.73;;;2.67;;
29362;SDS011;16349;53.672;10.014;2023-03-23T11:46:11;7.83;;;2.23;;
29362;SDS011;16349;53.672;10.014;2023-03-23T11:48:47;9.07;;;2.67;;
29362;SDS011;16349;53.672;10.014;2023-03-23T11:51:23;4.90;;;1.70;;
29362;SDS011;16349;53.672;10.014;2023-03-23T11:53:57;7.60;;;2.23;;
29362;SDS011;16349;53.672;10.014;2023-03-23T11:56:31;8.03;;;2.10;;
29362;SDS011;16349;53.672;10.014;2023-03-23T11:59:02;8.83;;;2.93;;
29362;SDS011;16349;53.672;10.014;2023-03-23T12:01:43;5.43;;;2.03;;
29362;SDS011;16349;53.672;10.014;2023-03-23T12:07:27;7.20;;;2.00;;
29362;SDS011;16349;53.672;10.014;2023-03-23T12:10:04;9.90;;;2.13;;
29362;SDS011;16349;53.672;10.014;2023-03-23T12:12:40;7.50;;;1.93;;
29362;SDS011;16349;53.672;10.014;2023-03-23T12:15:16;8.63;;;2.23;;
29362;SDS011;16349;53.672;10.014;2023-03-23T12:17:53;8.23;;;2.87;;
29362;SDS011;16349;53.672;10.014;2023-03-23T12:20:29;9.70;;;1.90;;
29362;SDS011;16349;53.672;10.014;2023-03-23T12:23:07;9.93;;;2.43;;
29362;SDS011;16349;53.672;10.014;2023-03-23T12:25:46;8.70;;;2.10;;
29362;SDS011;16349;53.672;10.014;2023-03-23T12:28:26;7.27;;;2.80;;
29362;SDS011;16349;53.672;10.014;2023-03-23T12:31:01;9.13;;;3.07;;
29362;SDS011;16349;53.672;10.014;2023-03-23T12:33:39;13.00;;;3.03;;
29362;SDS011;16349;53.672;10.014;2023-03-23T12:36:18;7.73;;;2.33;;
29362;SDS011;16349;53.672;10.014;2023-03-23T12:39:03;6.37;;;2.63;;
29362;SDS011;16349;53.672;10.014;2023-03-23T12:41:45;7.83;;;2.27;;
29362;SDS011;16349;53.672;10.014;2023-03-23T12:44:18;8.53;;;2.30;;
29362;SDS011;16349;53.672;10.014;2023-03-23T12:46:54;11.97;;;2.63;;
29362;SDS011;16349;53.672;10.014;2023-03-23T12:49:36;10.03;;;2.60;;
29362;SDS011;16349;53.672;10.014;2023-03-23T12:52:10;9.60;;;2.10;;
29362;SDS011;16349;53.672;10.014;2023-03-23T12:54:42;7.60;;;2.07;;
29362;SDS011;16349;53.672;10.014;2023-03-23T12:57:19;8.33;;;2.93;;
29362;SDS011;16349;53.672;10.014;2023-03-23T12:59:53;7.10;;;2.53;;
29362;SDS011;16349;53.672;10.014;2023-03-23T13:02:28;9.97;;;2.77;;
29362;SDS011;16349;53.672;10.014;2023-03-23T13:05:00;6.90;;;2.77;;
29362;SDS011;16349;53.672;10.014;2023-03-23T13:07:33;6.40;;;2.70;;
29362;SDS011;16349;53.672;10.014;2023-03-23T13:10:04;6.83;;;3.13;;
29362;SDS011;16349;53.672;10.014;2023-03-23T13:12:39;8.07;;;3.67;;
29362;SDS011;16349;53.672;10.014;2023-03-23T13:15:13;7.40;;;2.60;;
29362;SDS011;16349;53.672;10.014;2023-03-23T13:17:51;6.23;;;3.13;;
29362;SDS011;16349;53.672;10.014;2023-03-23T13:20:32;8.13;;;3.73;;
29362;SDS011;16349;53.672;10.014;2023-03-23T13:23:08;10.87;;;4.70;;
29362;SDS011;16349;53.672;10.014;2023-03-23T13:28:27;10.27;;;3.47;;
29362;SDS011;16349;53.672;10.014;2023-03-23T13:31:00;7.77;;;3.20;;
29362;SDS011;16349;53.672;10.014;2023-03-23T13:33:30;8.37;;;3.43;;
29362;SDS011;16349;53.672;10.014;2023-03-23T13:36:03;8.53;;;3.53;;
29362;SDS011;16349;53.672;10.014;2023-03-23T13:38:34;11.13;;;3.30;;
29362;SDS011;16349;53.672;10.014;2023-03-23T13:41:05;7.40;;;3.13;;
29362;SDS011;16349;53.672;10.014;2023-03-23T13:43:35;6.37;;;2.70;;
29362;SDS011;16349;53.672;10.014;2023-03-23T13:46:11;4.77;;;2.03;;
29362;SDS011;16349;53.672;10.014;2023-03-23T13:48:50;4.20;;;0.97;;
29362;SDS011;16349;53.672;10.014;2023-03-23T13:51:34;1.93;;;0.40;;
29362;SDS011;16349;53.672;10.014;2023-03-23T13:56:53;3.63;;;1.30;;
29362;SDS011;16349;53.672;10.014;2023-03-23T13:59:29;1.83;;;0.80;;
29362;SDS011;16349;53.672;10.014;2023-03-23T14:04:55;3.23;;;1.37;;
29362;SDS011;16349;53.672;10.014;2023-03-23T14:07:24;6.03;;;2.20;;
29362;SDS011;16349;53.672;10.014;2023-03-23T14:09:52;4.73;;;1.70;;
29362;SDS011;16349;53.672;10.014;2023-03-23T14:12:19;5.37;;;1.07;;
29362;SDS011;16349;53.672;10.014;2023-03-23T14:14:49;3.50;;;1.00;;
29362;SDS011;16349;53.672;10.014;2023-03-23T14:17:24;1.73;;;1.00;;
29362;SDS011;16349;53.672;10.014;2023-03-23T14:19:53;3.83;;;2.80;;
29362;SDS011;16349;53.672;10.014;2023-03-23T14:22:33;7.03;;;2.27;;
29362;SDS011;16349;53.672;10.014;2023-03-23T14:25:09;2.30;;;2.10;;
29362;SDS011;16349;53.672;10.014;2023-03-23T14:27:38;3.80;;;2.03;;
29362;SDS011;16349;53.672;10.014;2023-03-23T14:30:07;3.90;;;2.10;;
29362;SDS011;16349;53.672;10.014;2023-03-23T14:32:42;4.10;;;1.43;;
29362;SDS011;16349;53.672;10.014;2023-03-23T14:37:57;2.23;;;1.57;;
29362;SDS011;16349;53.672;10.014;2023-03-23T14:40:25;2.93;;;1.40;;
29362;SDS011;16349;53.672;10.014;2023-03-23T14:42:53;3.43;;;1.47;;
29362;SDS011;16349;53.672;10.014;2023-03-23T14:45:22;1.93;;;1.33;;
29362;SDS011;16349;53.672;10.014;2023-03-23T14:47:50;3.30;;;1.27;;
29362;SDS011;16349;53.672;10.014;2023-03-23T14:50:24;3.27;;;1.80;;
29362;SDS011;16349;53.672;10.014;2023-03-23T14:52:58;4.70;;;1.30;;
29362;SDS011;16349;53.672;10.014;2023-03-23T14:55:27;4.40;;;1.30;;
29362;SDS011;16349;53.672;10.014;2023-03-23T14:58:04;4.33;;;1.50;;
29362;SDS011;16349;53.672;10.014;2023-03-23T15:00:36;1.43;;;1.00;;
29362;SDS011;16349;53.672;10.014;2023-03-23T15:03:09;4.17;;;1.20;;
29362;SDS011;16349;53.672;10.014;2023-03-23T15:05:41;4.27;;;1.40;;
29362;SDS011;16349;53.672;10.014;2023-03-23T15:08:13;3.20;;;1.20;;
29362;SDS011;16349;53.672;10.014;2023-03-23T15:10:50;5.07;;;1.33;;
29362;SDS011;16349;53.672;10.014;2023-03-23T15:13:19;3.93;;;1.43;;
29362;SDS011;16349;53.672;10.014;2023-03-23T15:15:46;3.63;;;1.30;;
29362;SDS011;16349;53.672;10.014;2023-03-23T15:18:17;3.13;;;1.27;;
29362;SDS011;16349;53.672;10.014;2023-03-23T15:20:56;4.40;;;1.07;;